createdAt,value
2022-09-13T00:01:16.426Z,15.37
2022-09-13T00:04:02.102Z,15.34
2022-09-13T00:06:47.659Z,15.35
2022-09-13T00:09:32.960Z,15.31
2022-09-13T00:12:18.446Z,15.33
2022-09-13T00:15:04.237Z,15.30
2022-09-13T00:17:49.708Z,15.29
2022-09-13T00:20:34.892Z,15.26
2022-09-13T00:23:20.402Z,15.23
2022-09-13T00:26:11.898Z,15.23
2022-09-13T00:28:58.804Z,15.21
2022-09-13T00:31:44.081Z,15.19
2022-09-13T00:34:29.615Z,15.18
2022-09-13T00:37:14.893Z,15.14
2022-09-13T00:40:01.196Z,15.13
2022-09-13T00:42:46.281Z,15.12
2022-09-13T00:45:32.006Z,15.10
2022-09-13T00:48:21.597Z,15.09
2022-09-13T00:51:09.652Z,15.09
2022-09-13T00:53:59.454Z,15.07
2022-09-13T00:56:51.538Z,15.04
2022-09-13T00:59:47.268Z,15.03
2022-09-13T01:02:32.649Z,15.01
2022-09-13T01:05:21.784Z,14.99
2022-09-13T01:08:12.607Z,15.00
2022-09-13T01:11:01.246Z,14.97
2022-09-13T01:13:47.881Z,14.94
2022-09-13T01:16:33.350Z,14.92
2022-09-13T01:19:18.501Z,14.89
2022-09-13T01:22:30.110Z,14.87
2022-09-13T01:25:30.769Z,14.86
2022-09-13T01:28:35.068Z,14.86
2022-09-13T01:31:45.783Z,14.86
2022-09-13T01:34:36.870Z,14.83
2022-09-13T01:37:42.797Z,14.80
2022-09-13T01:40:32.954Z,14.79
2022-09-13T01:43:37.057Z,14.78
2022-09-13T01:46:32.059Z,14.76
2022-09-13T01:49:17.424Z,14.75
2022-09-13T01:52:17.437Z,14.73
2022-09-13T01:55:27.240Z,14.71
2022-09-13T01:58:34.900Z,14.71
2022-09-13T02:01:36.284Z,14.70
2022-09-13T02:04:30.032Z,14.69
2022-09-13T02:07:25.008Z,14.68
2022-09-13T02:10:21.738Z,14.67
2022-09-13T02:13:13.771Z,14.65
2022-09-13T02:16:07.385Z,14.64
2022-09-13T02:18:59.155Z,14.62
2022-09-13T02:21:51.539Z,14.61
2022-09-13T02:24:42.796Z,14.58
2022-09-13T02:27:32.799Z,14.56
2022-09-13T02:30:19.516Z,14.54
2022-09-13T02:33:06.843Z,14.53
2022-09-13T02:36:00.055Z,14.48
2022-09-13T02:39:00.158Z,14.42
2022-09-13T02:42:00.565Z,14.40
2022-09-13T02:44:53.739Z,14.41
2022-09-13T02:47:51.989Z,14.42
2022-09-13T02:50:55.755Z,14.46
2022-09-13T02:54:19.258Z,14.51
2022-09-13T02:57:20.639Z,14.51
2022-09-13T03:00:06.733Z,14.50
2022-09-13T03:02:55.054Z,14.48
2022-09-13T03:05:40.868Z,14.48
2022-09-13T03:08:26.771Z,14.47
2022-09-13T03:11:53.432Z,14.48
2022-09-13T03:15:06.459Z,14.46
2022-09-13T03:18:36.525Z,14.42
2022-09-13T03:21:21.591Z,14.39
2022-09-13T03:24:36.273Z,14.37
2022-09-13T03:27:37.802Z,14.35
2022-09-13T03:30:23.243Z,14.31
2022-09-13T03:33:29.875Z,14.30
2022-09-13T03:36:27.053Z,14.28
2022-09-13T03:39:24.883Z,14.29
2022-09-13T03:42:21.012Z,14.29
2022-09-13T03:45:09.610Z,14.31
2022-09-13T03:47:56.131Z,14.33
2022-09-13T03:50:42.685Z,14.36
2022-09-13T03:53:31.333Z,14.36
2022-09-13T03:56:19.831Z,14.39
2022-09-13T03:59:05.395Z,14.38
2022-09-13T04:01:50.898Z,14.38
2022-09-13T04:04:36.006Z,14.40
2022-09-13T04:07:23.469Z,14.43
2022-09-13T04:10:13.555Z,14.47
2022-09-13T04:13:02.673Z,14.48
2022-09-13T04:15:50.090Z,14.51
2022-09-13T04:18:35.636Z,14.51
2022-09-13T04:21:21.488Z,14.50
2022-09-13T04:24:06.748Z,14.50
2022-09-13T04:26:53.216Z,14.48
2022-09-13T04:29:38.802Z,14.48
2022-09-13T04:32:24.476Z,14.51
2022-09-13T04:35:10.705Z,14.53
2022-09-13T04:37:59.259Z,14.50
2022-09-13T04:40:44.773Z,14.51
2022-09-13T04:43:29.845Z,14.49
2022-09-13T04:46:15.204Z,14.46
2022-09-13T04:49:00.678Z,14.46
2022-09-13T04:51:46.263Z,14.46
2022-09-13T04:54:31.752Z,14.46
2022-09-13T04:57:19.597Z,14.50
2022-09-13T05:00:05.996Z,14.53
2022-09-13T05:02:57.288Z,14.56
2022-09-13T05:05:42.453Z,14.59
2022-09-13T05:08:27.902Z,14.63
2022-09-13T05:11:12.977Z,14.66
2022-09-13T05:14:00.611Z,14.68
2022-09-13T05:16:45.768Z,14.68
2022-09-13T05:19:30.844Z,14.70
2022-09-13T05:22:16.272Z,14.72
2022-09-13T05:25:01.767Z,14.76
2022-09-13T05:27:47.390Z,14.78
2022-09-13T05:30:32.663Z,14.80
2022-09-13T05:33:18.099Z,14.75
2022-09-13T05:36:05.281Z,14.74
2022-09-13T05:39:12.201Z,14.74
2022-09-13T05:41:58.929Z,14.76
2022-09-13T05:44:44.252Z,14.82
2022-09-13T05:47:29.399Z,14.80
2022-09-13T05:50:27.537Z,14.80
2022-09-13T05:53:20.129Z,14.80
2022-09-13T05:56:07.238Z,14.79
2022-09-13T05:58:53.253Z,14.77
2022-09-13T06:01:38.592Z,14.70
2022-09-13T06:04:24.202Z,14.66
2022-09-13T06:07:12.242Z,14.65
2022-09-13T06:09:58.390Z,14.64
2022-09-13T06:12:46.415Z,14.67
2022-09-13T06:15:32.134Z,14.66
2022-09-13T06:18:17.652Z,14.65
2022-09-13T06:21:07.433Z,14.61
2022-09-13T06:23:54.088Z,14.58
2022-09-13T06:26:39.552Z,14.54
2022-09-13T06:29:24.749Z,14.55
2022-09-13T06:32:10.206Z,14.54
2022-09-13T06:34:55.575Z,14.56
2022-09-13T06:37:40.746Z,14.61
2022-09-13T06:40:26.424Z,14.67
2022-09-13T06:43:11.671Z,14.75
2022-09-13T06:46:01.661Z,14.83
2022-09-13T06:48:48.505Z,14.90
2022-09-13T06:51:35.084Z,14.99
2022-09-13T06:54:20.257Z,15.08
2022-09-13T06:57:05.516Z,15.17
2022-09-13T06:59:50.616Z,15.27
2022-09-13T07:02:35.904Z,15.33
2022-09-13T07:05:21.875Z,15.42
2022-09-13T07:08:10.002Z,15.49
2022-09-13T07:10:58.055Z,15.53
2022-09-13T07:13:43.315Z,15.58
2022-09-13T07:16:31.252Z,15.60
2022-09-13T07:19:20.001Z,15.59
2022-09-13T07:22:05.088Z,15.60
2022-09-13T07:24:50.673Z,15.65
2022-09-13T07:27:36.021Z,15.73
2022-09-13T07:30:21.499Z,15.85
2022-09-13T07:33:06.720Z,15.93
2022-09-13T07:35:56.791Z,16.06
2022-09-13T07:38:45.268Z,16.13
2022-09-13T07:41:32.377Z,16.20
2022-09-13T07:44:18.417Z,16.21
2022-09-13T07:47:03.993Z,16.30
2022-09-13T07:49:50.409Z,16.41
2022-09-13T07:52:37.963Z,16.47
2022-09-13T07:55:23.487Z,16.55
2022-09-13T07:58:08.960Z,16.66
2022-09-13T08:00:54.019Z,16.73
2022-09-13T08:03:39.693Z,16.76
2022-09-13T08:06:27.734Z,16.78
2022-09-13T08:09:14.273Z,16.81
2022-09-13T08:11:59.483Z,16.87
2022-09-13T08:14:44.570Z,16.97
2022-09-13T08:17:29.745Z,16.96
2022-09-13T08:20:15.241Z,16.96
2022-09-13T08:23:00.386Z,17.04
2022-09-13T08:25:45.900Z,17.16
2022-09-13T08:28:31.631Z,17.25
2022-09-13T08:31:18.094Z,17.23
2022-09-13T08:34:10.313Z,17.21
2022-09-13T08:36:56.141Z,17.24
2022-09-13T08:39:41.347Z,17.35
2022-09-13T08:42:50.581Z,17.46
2022-09-13T08:45:35.779Z,17.68
2022-09-13T08:48:33.753Z,17.88
2022-09-13T08:51:32.344Z,18.14
2022-09-13T08:54:21.272Z,18.33
2022-09-13T08:57:17.027Z,18.44
2022-09-13T09:00:20.844Z,18.51
2022-09-13T09:03:24.645Z,18.52
2022-09-13T09:06:16.778Z,18.49
2022-09-13T09:09:23.443Z,18.38
2022-09-13T09:12:41.333Z,18.39
2022-09-13T09:15:43.801Z,18.51
2022-09-13T09:18:34.686Z,18.65
2022-09-13T09:21:22.639Z,18.69
2022-09-13T09:24:17.898Z,19.03
2022-09-13T09:27:15.010Z,19.56
2022-09-13T09:30:01.681Z,19.68
2022-09-13T09:33:07.536Z,19.72
2022-09-13T09:35:59.884Z,19.80
2022-09-13T09:38:45.508Z,19.89
2022-09-13T09:41:33.268Z,19.99
2022-09-13T09:44:20.985Z,20.06
2022-09-13T09:47:14.006Z,20.22
2022-09-13T09:50:14.182Z,20.23
2022-09-13T09:53:14.308Z,20.28
2022-09-13T09:56:12.670Z,20.03
2022-09-13T09:58:58.102Z,20.00
2022-09-13T10:01:46.850Z,20.06
2022-09-13T10:04:32.339Z,20.33
2022-09-13T10:07:25.439Z,20.64
2022-09-13T10:10:26.426Z,20.67
2022-09-13T10:13:21.142Z,20.75
2022-09-13T10:16:23.188Z,20.78
2022-09-13T10:19:25.651Z,20.75
2022-09-13T10:22:12.048Z,20.75
2022-09-13T10:25:23.274Z,20.59
2022-09-13T10:28:16.679Z,20.46
2022-09-13T10:31:16.287Z,20.42
2022-09-13T10:34:06.335Z,20.58
2022-09-13T10:37:05.586Z,20.69
2022-09-13T10:40:15.736Z,20.64
2022-09-13T10:43:04.844Z,20.48
2022-09-13T10:45:51.674Z,20.36
2022-09-13T10:48:48.455Z,20.47
2022-09-13T10:51:38.441Z,20.73
2022-09-13T10:54:24.233Z,20.80
2022-09-13T10:57:33.895Z,20.63
2022-09-13T11:00:21.919Z,20.55
2022-09-13T11:03:32.286Z,20.33
2022-09-13T11:06:46.693Z,20.07
2022-09-13T11:09:50.696Z,19.83
2022-09-13T11:13:03.588Z,19.72
2022-09-13T11:16:22.996Z,19.78
2022-09-13T11:19:39.177Z,19.73
2022-09-13T11:22:47.636Z,19.65
2022-09-13T11:25:38.975Z,19.62
2022-09-13T11:28:27.295Z,19.57
2022-09-13T11:31:32.293Z,19.56
2022-09-13T11:34:41.207Z,19.51
2022-09-13T11:37:38.645Z,19.53
2022-09-13T11:40:35.755Z,19.50
2022-09-13T11:43:34.051Z,19.49
2022-09-13T11:46:51.900Z,19.46
2022-09-13T11:50:19.011Z,19.48
2022-09-13T11:53:32.542Z,19.52
2022-09-13T11:56:48.086Z,19.51
2022-09-13T11:59:49.338Z,19.53
2022-09-13T12:02:58.879Z,19.48
2022-09-13T12:05:57.964Z,19.49
2022-09-13T12:08:48.933Z,19.52
2022-09-13T12:11:39.845Z,19.58
2022-09-13T12:14:30.444Z,19.60
2022-09-13T12:17:34.122Z,19.59
2022-09-13T12:20:39.430Z,19.58
2022-09-13T12:23:32.003Z,19.49
2022-09-13T12:26:30.769Z,19.36
2022-09-13T12:29:23.907Z,19.24
2022-09-13T12:32:10.554Z,19.11
2022-09-13T12:35:13.414Z,18.96
2022-09-13T12:37:58.627Z,18.90
2022-09-13T12:41:04.361Z,18.89
2022-09-13T12:44:02.126Z,18.92
2022-09-13T12:47:08.832Z,18.98
2022-09-13T12:50:21.650Z,19.00
2022-09-13T12:53:23.484Z,19.00
2022-09-13T12:56:54.845Z,19.09
2022-09-13T13:00:19.377Z,19.02
2022-09-13T13:03:13.922Z,19.00
2022-09-13T13:06:20.143Z,19.15
2022-09-13T13:09:42.499Z,19.31
2022-09-13T13:12:27.733Z,19.43
2022-09-13T13:15:16.316Z,19.47
2022-09-13T13:18:22.588Z,19.49
2022-09-13T13:21:31.218Z,19.56
2022-09-13T13:24:16.578Z,19.56
2022-09-13T13:27:33.539Z,19.51
2022-09-13T13:30:42.178Z,19.36
2022-09-13T13:33:29.202Z,19.23
2022-09-13T13:36:39.816Z,19.18
2022-09-13T13:39:25.118Z,19.17
2022-09-13T13:42:12.804Z,19.28
2022-09-13T13:45:14.869Z,19.35
2022-09-13T13:48:08.820Z,19.41
2022-09-13T13:51:23.695Z,19.51
2022-09-13T13:54:50.546Z,19.68
2022-09-13T13:57:52.374Z,19.81
2022-09-13T14:00:48.656Z,19.84
2022-09-13T14:03:58.044Z,19.95
2022-09-13T14:06:52.316Z,20.05
2022-09-13T14:09:54.853Z,20.15
2022-09-13T14:13:15.699Z,20.27
2022-09-13T14:16:07.056Z,20.44
2022-09-13T14:18:52.490Z,20.54
2022-09-13T14:21:38.195Z,20.56
2022-09-13T14:24:24.809Z,20.57
2022-09-13T14:27:17.493Z,20.61
2022-09-13T14:30:17.247Z,20.68
2022-09-13T14:33:05.197Z,20.73
2022-09-13T14:35:58.654Z,20.58
2022-09-13T14:39:00.306Z,20.58
2022-09-13T14:41:45.842Z,20.51
2022-09-13T14:44:31.143Z,20.24
2022-09-13T14:47:19.365Z,20.18
2022-09-13T14:50:32.910Z,20.13
2022-09-13T14:53:25.042Z,20.17
2022-09-13T14:56:32.744Z,20.17
2022-09-13T14:59:48.004Z,20.19
2022-09-13T15:02:38.169Z,20.30
2022-09-13T15:05:26.137Z,20.28
2022-09-13T15:08:32.967Z,20.40
2022-09-13T15:11:34.025Z,20.40
2022-09-13T15:14:31.311Z,20.37
2022-09-13T15:17:16.660Z,20.24
2022-09-13T15:20:08.358Z,20.13
2022-09-13T15:22:54.727Z,20.15
2022-09-13T15:25:40.151Z,20.16
2022-09-13T15:28:32.980Z,20.16
2022-09-13T15:31:29.834Z,20.15
2022-09-13T15:34:22.302Z,20.13
2022-09-13T15:37:13.673Z,20.10
2022-09-13T15:40:13.352Z,20.05
2022-09-13T15:43:00.497Z,20.03
2022-09-13T15:45:46.305Z,19.98
2022-09-13T15:48:36.165Z,19.90
2022-09-13T15:51:23.074Z,19.81
2022-09-13T15:54:17.956Z,19.75
2022-09-13T15:57:09.056Z,19.71
2022-09-13T15:59:56.269Z,19.65
2022-09-13T16:02:42.373Z,19.62
2022-09-13T16:05:28.003Z,19.55
2022-09-13T16:08:13.519Z,19.48
2022-09-13T16:10:58.958Z,19.41
2022-09-13T16:13:44.432Z,19.32
2022-09-13T16:16:29.903Z,19.25
2022-09-13T16:19:25.914Z,19.19
2022-09-13T16:22:12.734Z,19.12
2022-09-13T16:24:58.420Z,19.06
2022-09-13T16:27:45.701Z,19.02
2022-09-13T16:30:32.981Z,18.96
2022-09-13T16:33:19.750Z,18.91
2022-09-13T16:36:05.175Z,18.87
2022-09-13T16:38:50.719Z,18.84
2022-09-13T16:41:36.192Z,18.81
2022-09-13T16:44:21.534Z,18.76
2022-09-13T16:47:07.220Z,18.73
2022-09-13T16:49:52.592Z,18.69
2022-09-13T16:52:38.141Z,18.67
2022-09-13T16:55:25.821Z,18.62
2022-09-13T16:58:11.340Z,18.60
2022-09-13T17:00:57.166Z,18.56
2022-09-13T17:03:42.942Z,18.53
2022-09-13T17:06:28.017Z,18.48
2022-09-13T17:09:13.771Z,18.43
2022-09-13T17:11:59.222Z,18.39
2022-09-13T17:14:47.350Z,18.35
2022-09-13T17:17:36.046Z,18.30
2022-09-13T17:20:21.488Z,18.27
2022-09-13T17:23:06.678Z,18.22
2022-09-13T17:25:52.572Z,18.17
2022-09-13T17:28:38.452Z,18.13
2022-09-13T17:31:23.896Z,18.08
2022-09-13T17:34:13.007Z,18.06
2022-09-13T17:36:58.437Z,18.06
2022-09-13T17:39:43.735Z,18.05
2022-09-13T17:42:29.253Z,18.04
2022-09-13T17:45:15.133Z,18.03
2022-09-13T17:48:02.646Z,17.98
2022-09-13T17:50:47.732Z,17.95
2022-09-13T17:53:46.778Z,17.90
2022-09-13T17:56:36.052Z,17.85
2022-09-13T17:59:22.100Z,17.80
2022-09-13T18:02:08.539Z,17.76
2022-09-13T18:04:54.145Z,17.73
2022-09-13T18:07:39.427Z,17.70
2022-09-13T18:10:45.628Z,17.66
2022-09-13T18:13:34.346Z,17.64
2022-09-13T18:16:25.974Z,17.63
2022-09-13T18:19:12.298Z,17.61
2022-09-13T18:21:57.560Z,17.59
2022-09-13T18:24:42.633Z,17.56
2022-09-13T18:27:27.781Z,17.56
2022-09-13T18:30:13.176Z,17.51
2022-09-13T18:32:58.432Z,17.50
2022-09-13T18:35:43.833Z,17.47
2022-09-13T18:38:36.688Z,17.48
2022-09-13T18:41:35.049Z,17.53
2022-09-13T18:44:20.372Z,17.53
2022-09-13T18:47:05.805Z,17.56
2022-09-13T18:49:51.026Z,17.56
2022-09-13T18:52:39.171Z,17.54
2022-09-13T18:55:24.361Z,17.50
2022-09-13T18:58:13.416Z,17.45
2022-09-13T19:01:07.874Z,17.40
2022-09-13T19:03:55.700Z,17.39
2022-09-13T19:06:46.310Z,17.38
2022-09-13T19:09:31.610Z,17.37
2022-09-13T19:12:17.026Z,17.37
2022-09-13T19:15:02.112Z,17.35
2022-09-13T19:17:47.638Z,17.33
2022-09-13T19:20:32.993Z,17.30
2022-09-13T19:23:18.734Z,17.27
2022-09-13T19:26:13.386Z,17.22
2022-09-13T19:29:06.023Z,17.18
2022-09-13T19:31:52.631Z,17.12
2022-09-13T19:34:37.780Z,17.08
2022-09-13T19:37:24.008Z,17.08
2022-09-13T19:40:09.906Z,17.07
2022-09-13T19:42:55.418Z,17.03
2022-09-13T19:45:40.403Z,17.02
2022-09-13T19:48:38.355Z,16.98
2022-09-13T19:51:26.962Z,16.94
2022-09-13T19:54:15.162Z,16.92
2022-09-13T19:57:00.422Z,16.89
2022-09-13T19:59:45.883Z,16.89
2022-09-13T20:02:31.223Z,16.86
2022-09-13T20:05:17.738Z,16.84
2022-09-13T20:08:04.070Z,16.82
2022-09-13T20:10:49.164Z,16.79
2022-09-13T20:13:35.371Z,16.77
2022-09-13T20:16:23.671Z,16.73
2022-09-13T20:19:39.019Z,16.72
2022-09-13T20:22:21.038Z,16.68
2022-09-13T20:25:07.166Z,16.68
2022-09-13T20:27:52.373Z,16.67
2022-09-13T20:30:37.937Z,16.67
2022-09-13T20:33:26.905Z,16.69
2022-09-13T20:36:14.994Z,16.71
2022-09-13T20:39:03.472Z,16.69
2022-09-13T20:41:49.841Z,16.67
2022-09-13T20:44:35.488Z,16.67
2022-09-13T20:47:25.915Z,16.66
2022-09-13T20:50:20.254Z,16.65
2022-09-13T20:53:05.508Z,16.67
2022-09-13T20:55:52.384Z,16.66
2022-09-13T20:58:39.052Z,16.67
2022-09-13T21:01:27.954Z,16.63
2022-09-13T21:04:13.573Z,16.60
2022-09-13T21:07:17.540Z,16.58
2022-09-13T21:10:03.772Z,16.54
2022-09-13T21:12:52.269Z,16.51
2022-09-13T21:15:38.525Z,16.50
2022-09-13T21:18:23.749Z,16.47
2022-09-13T21:21:11.188Z,16.44
2022-09-13T21:23:57.478Z,16.39
2022-09-13T21:26:42.942Z,16.36
2022-09-13T21:29:28.588Z,16.30
2022-09-13T21:32:14.140Z,16.24
2022-09-13T21:34:59.855Z,16.21
2022-09-13T21:37:45.470Z,16.16
2022-09-13T21:40:31.723Z,16.13
2022-09-13T21:43:16.967Z,16.07
2022-09-13T21:46:13.068Z,16.02
2022-09-13T21:49:02.175Z,15.96
2022-09-13T21:51:49.690Z,15.94
2022-09-13T21:54:35.524Z,15.92
2022-09-13T21:57:21.003Z,15.89
2022-09-13T22:00:07.123Z,15.85
2022-09-13T22:02:58.582Z,15.78
2022-09-13T22:05:44.039Z,15.74
2022-09-13T22:08:37.940Z,15.74
2022-09-13T22:11:28.848Z,15.72
2022-09-13T22:14:16.944Z,15.71
2022-09-13T22:17:02.348Z,15.71
2022-09-13T22:19:47.756Z,15.69
2022-09-13T22:22:33.092Z,15.66
2022-09-13T22:25:18.199Z,15.64
2022-09-13T22:28:03.607Z,15.62
2022-09-13T22:30:49.268Z,15.61
2022-09-13T22:33:35.171Z,15.60
2022-09-13T22:36:20.417Z,15.62
2022-09-13T22:39:05.869Z,15.60
2022-09-13T22:41:51.122Z,15.58
2022-09-13T22:44:36.391Z,15.59
2022-09-13T22:47:21.878Z,15.57
2022-09-13T22:50:07.218Z,15.55
2022-09-13T22:52:52.450Z,15.53
2022-09-13T22:57:21.507Z,15.55
2022-09-13T22:59:02.074Z,15.50
2022-09-13T23:01:47.790Z,15.50
2022-09-13T23:04:33.049Z,15.47
2022-09-13T23:07:18.705Z,15.44
2022-09-13T23:10:04.284Z,15.43
2022-09-13T23:12:49.720Z,15.43
2022-09-13T23:15:35.044Z,15.40
2022-09-13T23:18:20.254Z,15.39
2022-09-13T23:21:05.617Z,15.35
2022-09-13T23:23:51.182Z,15.37
2022-09-13T23:26:36.280Z,15.34
2022-09-13T23:29:21.719Z,15.30
2022-09-13T23:32:08.132Z,15.30
2022-09-13T23:34:53.298Z,15.29
2022-09-13T23:37:39.571Z,15.27
2022-09-13T23:40:24.710Z,15.23
2022-09-13T23:43:09.847Z,15.18
2022-09-13T23:45:55.467Z,15.18
2022-09-13T23:48:43.079Z,15.18
2022-09-13T23:51:28.727Z,15.18
2022-09-13T23:54:14.154Z,15.16
2022-09-13T23:56:59.689Z,15.13
2022-09-13T23:59:44.933Z,15.09
